sensor_id;sensor_type;location;lat;lon;timestamp;pressure;altitude;pressure_sealevel;temperature;humidity
75998;BME280;64685;48.762;44.822;2023-06-10T00:03:47;101192.22;;;19.39;52.60
75998;BME280;64685;48.762;44.822;2023-06-10T00:08:51;101191.03;;;19.59;51.99
75998;BME280;64685;48.762;44.822;2023-06-10T00:13:53;101195.91;;;19.58;51.60
75998;BME280;64685;48.762;44.822;2023-06-10T00:18:56;101195.63;;;19.63;51.08
75998;BME280;64685;48.762;44.822;2023-06-10T00:24:07;101195.97;;;19.62;51.39
75998;BME280;64685;48.762;44.822;2023-06-10T00:29:14;101198.88;;;19.46;51.86
75998;BME280;64685;48.762;44.822;2023-06-10T00:34:17;101192.81;;;19.48;51.91
75998;BME280;64685;48.762;44.822;2023-06-10T00:39:20;101187.56;;;19.31;52.15
75998;BME280;64685;48.762;44.822;2023-06-10T00:44:22;101189.69;;;19.18;52.97
75998;BME280;64685;48.762;44.822;2023-06-10T00:49:25;101190.78;;;19.14;53.03
75998;BME280;64685;48.762;44.822;2023-06-10T00:54:28;101191.63;;;19.14;52.61
75998;BME280;64685;48.762;44.822;2023-06-10T00:59:31;101189.22;;;19.16;52.46
75998;BME280;64685;48.762;44.822;2023-06-10T01:04:34;101181.00;;;19.11;53.00
75998;BME280;64685;48.762;44.822;2023-06-10T01:15:08;101178.38;;;19.03;53.12
75998;BME280;64685;48.762;44.822;2023-06-10T01:20:13;101180.38;;;19.18;52.59
75998;BME280;64685;48.762;44.822;2023-06-10T01:25:17;101169.47;;;19.20;52.53
75998;BME280;64685;48.762;44.822;2023-06-10T01:30:27;101177.38;;;19.26;52.11
75998;BME280;64685;48.762;44.822;2023-06-10T01:35:33;101176.03;;;19.39;52.03
75998;BME280;64685;48.762;44.822;2023-06-10T01:40:38;101173.97;;;19.74;51.38
75998;BME280;64685;48.762;44.822;2023-06-10T01:45:41;101179.16;;;20.52;49.76
75998;BME280;64685;48.762;44.822;2023-06-10T01:50:44;101178.22;;;21.15;48.45
75998;BME280;64685;48.762;44.822;2023-06-10T01:55:47;101186.72;;;21.67;47.66
75998;BME280;64685;48.762;44.822;2023-06-10T02:00:51;101175.84;;;22.09;46.71
75998;BME280;64685;48.762;44.822;2023-06-10T02:05:54;101179.59;;;22.53;46.11
75998;BME280;64685;48.762;44.822;2023-06-10T02:10:56;101181.25;;;22.58;46.10
75998;BME280;64685;48.762;44.822;2023-06-10T02:15:59;101181.44;;;22.39;46.38
75998;BME280;64685;48.762;44.822;2023-06-10T02:21:04;101178.97;;;23.24;44.81
75998;BME280;64685;48.762;44.822;2023-06-10T02:26:07;101178.03;;;23.74;42.82
75998;BME280;64685;48.762;44.822;2023-06-10T02:31:09;101171.69;;;24.16;42.64
75998;BME280;64685;48.762;44.822;2023-06-10T02:36:12;101177.50;;;24.61;41.37
75998;BME280;64685;48.762;44.822;2023-06-10T02:41:15;101179.97;;;25.19;40.39
75998;BME280;64685;48.762;44.822;2023-06-10T02:46:19;101175.78;;;25.62;39.25
75998;BME280;64685;48.762;44.822;2023-06-10T02:51:22;101185.06;;;26.08;38.47
75998;BME280;64685;48.762;44.822;2023-06-10T02:56:31;101175.00;;;26.44;38.31
75998;BME280;64685;48.762;44.822;2023-06-10T03:01:37;101188.16;;;26.92;37.70
75998;BME280;64685;48.762;44.822;2023-06-10T03:06:44;101183.53;;;27.09;36.24
75998;BME280;64685;48.762;44.822;2023-06-10T03:11:54;101177.47;;;27.00;35.15
75998;BME280;64685;48.762;44.822;2023-06-10T03:16:57;101176.00;;;27.66;34.65
75998;BME280;64685;48.762;44.822;2023-06-10T03:22:16;101173.94;;;28.00;33.00
75998;BME280;64685;48.762;44.822;2023-06-10T03:27:33;101180.91;;;28.59;32.28
75998;BME280;64685;48.762;44.822;2023-06-10T03:32:42;101171.63;;;29.24;31.74
75998;BME280;64685;48.762;44.822;2023-06-10T03:37:49;101173.69;;;29.23;30.60
75998;BME280;64685;48.762;44.822;2023-06-10T03:42:51;101176.66;;;29.39;31.17
75998;BME280;64685;48.762;44.822;2023-06-10T03:47:54;101173.59;;;29.27;31.28
75998;BME280;64685;48.762;44.822;2023-06-10T03:53:03;101183.56;;;29.22;31.50
75998;BME280;64685;48.762;44.822;2023-06-10T03:58:07;101186.72;;;29.74;31.13
75998;BME280;64685;48.762;44.822;2023-06-10T04:03:10;101178.97;;;30.65;30.84
75998;BME280;64685;48.762;44.822;2023-06-10T04:08:25;101183.25;;;31.24;28.77
75998;BME280;64685;48.762;44.822;2023-06-10T04:13:28;101186.31;;;31.62;27.99
75998;BME280;64685;48.762;44.822;2023-06-10T04:18:33;101185.63;;;32.81;26.99
75998;BME280;64685;48.762;44.822;2023-06-10T04:23:40;101182.44;;;33.25;25.24
75998;BME280;64685;48.762;44.822;2023-06-10T04:28:45;101172.94;;;33.93;25.14
75998;BME280;64685;48.762;44.822;2023-06-10T04:33:48;101178.53;;;34.30;25.02
75998;BME280;64685;48.762;44.822;2023-06-10T04:38:51;101176.59;;;34.27;23.99
75998;BME280;64685;48.762;44.822;2023-06-10T04:43:56;101174.97;;;34.05;24.63
75998;BME280;64685;48.762;44.822;2023-06-10T04:49:00;101173.28;;;34.38;23.17
75998;BME280;64685;48.762;44.822;2023-06-10T04:54:02;101163.03;;;34.55;23.28
75998;BME280;64685;48.762;44.822;2023-06-10T04:59:06;101169.88;;;34.70;22.55
75998;BME280;64685;48.762;44.822;2023-06-10T05:04:08;101162.47;;;34.69;22.96
75998;BME280;64685;48.762;44.822;2023-06-10T05:09:11;101147.78;;;34.33;21.72
75998;BME280;64685;48.762;44.822;2023-06-10T05:14:14;101154.75;;;34.75;21.62
75998;BME280;64685;48.762;44.822;2023-06-10T05:19:21;101160.03;;;35.07;21.32
75998;BME280;64685;48.762;44.822;2023-06-10T05:24:24;101155.44;;;35.36;21.05
75998;BME280;64685;48.762;44.822;2023-06-10T05:29:27;101140.75;;;35.94;21.23
75998;BME280;64685;48.762;44.822;2023-06-10T05:34:30;101140.63;;;36.48;20.32
75998;BME280;64685;48.762;44.822;2023-06-10T05:39:33;101136.38;;;36.58;20.28
75998;BME280;64685;48.762;44.822;2023-06-10T05:44:39;101134.94;;;36.95;19.08
75998;BME280;64685;48.762;44.822;2023-06-10T05:49:42;101134.56;;;36.28;18.31
75998;BME280;64685;48.762;44.822;2023-06-10T05:54:45;101128.59;;;36.73;17.78
75998;BME280;64685;48.762;44.822;2023-06-10T05:59:48;101117.88;;;37.11;17.52
75998;BME280;64685;48.762;44.822;2023-06-10T06:04:50;101103.00;;;37.09;17.89
75998;BME280;64685;48.762;44.822;2023-06-10T06:09:53;101107.19;;;37.55;16.70
75998;BME280;64685;48.762;44.822;2023-06-10T06:14:56;101114.56;;;36.95;16.34
75998;BME280;64685;48.762;44.822;2023-06-10T06:19:58;101103.81;;;36.77;16.13
75998;BME280;64685;48.762;44.822;2023-06-10T06:25:01;101114.56;;;35.58;16.65
75998;BME280;64685;48.762;44.822;2023-06-10T06:30:05;101105.84;;;35.94;16.83
75998;BME280;64685;48.762;44.822;2023-06-10T06:35:08;101109.09;;;35.51;16.41
75998;BME280;64685;48.762;44.822;2023-06-10T06:40:11;101097.78;;;35.62;15.77
75998;BME280;64685;48.762;44.822;2023-06-10T06:45:14;101102.81;;;35.61;16.15
75998;BME280;64685;48.762;44.822;2023-06-10T06:50:17;101105.38;;;35.23;16.06
75998;BME280;64685;48.762;44.822;2023-06-10T06:55:20;101089.38;;;34.61;16.41
75998;BME280;64685;48.762;44.822;2023-06-10T07:00:23;101100.91;;;34.13;16.44
75998;BME280;64685;48.762;44.822;2023-06-10T07:05:25;101092.03;;;33.64;17.38
75998;BME280;64685;48.762;44.822;2023-06-10T07:10:29;101095.81;;;33.74;16.66
75998;BME280;64685;48.762;44.822;2023-06-10T07:15:32;101088.59;;;34.30;17.15
75998;BME280;64685;48.762;44.822;2023-06-10T07:20:35;101089.34;;;34.92;15.91
75998;BME280;64685;48.762;44.822;2023-06-10T07:25:38;101073.59;;;35.47;16.08
75998;BME280;64685;48.762;44.822;2023-06-10T07:30:40;101078.59;;;35.73;15.75
75998;BME280;64685;48.762;44.822;2023-06-10T07:35:43;101080.69;;;35.82;15.44
75998;BME280;64685;48.762;44.822;2023-06-10T07:40:46;101066.44;;;35.84;16.17
75998;BME280;64685;48.762;44.822;2023-06-10T07:45:48;101074.22;;;35.60;16.21
75998;BME280;64685;48.762;44.822;2023-06-10T07:50:51;101069.22;;;35.78;15.44
75998;BME280;64685;48.762;44.822;2023-06-10T07:55:55;101077.97;;;35.33;15.28
75998;BME280;64685;48.762;44.822;2023-06-10T08:00:57;101066.72;;;36.04;14.94
75998;BME280;64685;48.762;44.822;2023-06-10T08:06:00;101062.13;;;35.61;15.57
75998;BME280;64685;48.762;44.822;2023-06-10T08:11:03;101052.06;;;36.40;15.46
75998;BME280;64685;48.762;44.822;2023-06-10T08:16:06;101046.47;;;36.60;14.69
75998;BME280;64685;48.762;44.822;2023-06-10T08:21:08;101053.81;;;36.46;15.15
75998;BME280;64685;48.762;44.822;2023-06-10T08:26:11;101051.53;;;36.00;15.38
75998;BME280;64685;48.762;44.822;2023-06-10T08:31:14;101048.03;;;35.78;15.39
75998;BME280;64685;48.762;44.822;2023-06-10T08:36:16;101033.56;;;36.10;15.52
75998;BME280;64685;48.762;44.822;2023-06-10T08:41:21;101038.00;;;36.38;15.83
75998;BME280;64685;48.762;44.822;2023-06-10T08:46:27;101041.50;;;36.10;15.74
75998;BME280;64685;48.762;44.822;2023-06-10T08:51:30;101034.84;;;36.83;14.48
75998;BME280;64685;48.762;44.822;2023-06-10T08:56:38;101019.66;;;36.14;14.64
75998;BME280;64685;48.762;44.822;2023-06-10T09:01:42;101027.88;;;37.28;14.91
75998;BME280;64685;48.762;44.822;2023-06-10T09:06:45;101038.16;;;36.35;15.15
75998;BME280;64685;48.762;44.822;2023-06-10T09:11:48;101023.34;;;36.24;15.04
75998;BME280;64685;48.762;44.822;2023-06-10T09:16:50;101018.94;;;37.08;15.19
75998;BME280;64685;48.762;44.822;2023-06-10T09:21:53;101002.66;;;37.01;14.32
75998;BME280;64685;48.762;44.822;2023-06-10T09:27:06;100996.38;;;36.47;15.02
75998;BME280;64685;48.762;44.822;2023-06-10T09:32:09;100990.88;;;36.49;15.72
75998;BME280;64685;48.762;44.822;2023-06-10T09:37:12;100999.34;;;36.38;15.71
75998;BME280;64685;48.762;44.822;2023-06-10T09:42:17;100986.53;;;36.44;15.05
75998;BME280;64685;48.762;44.822;2023-06-10T09:47:21;100973.03;;;36.56;15.48
75998;BME280;64685;48.762;44.822;2023-06-10T09:52:26;100970.69;;;36.69;15.19
75998;BME280;64685;48.762;44.822;2023-06-10T09:57:32;100970.69;;;36.69;15.47
75998;BME280;64685;48.762;44.822;2023-06-10T10:02:48;100961.00;;;36.72;15.51
75998;BME280;64685;48.762;44.822;2023-06-10T10:07:52;100950.03;;;36.58;15.60
75998;BME280;64685;48.762;44.822;2023-06-10T10:12:55;100969.47;;;36.28;15.47
75998;BME280;64685;48.762;44.822;2023-06-10T10:18:09;100949.06;;;36.05;15.83
75998;BME280;64685;48.762;44.822;2023-06-10T10:23:14;100944.91;;;35.19;16.26
75998;BME280;64685;48.762;44.822;2023-06-10T10:28:24;100939.63;;;34.91;16.68
75998;BME280;64685;48.762;44.822;2023-06-10T10:33:33;100947.78;;;34.38;17.31
75998;BME280;64685;48.762;44.822;2023-06-10T10:38:39;100934.78;;;34.12;17.11
75998;BME280;64685;48.762;44.822;2023-06-10T10:43:44;100934.09;;;33.38;17.28
75998;BME280;64685;48.762;44.822;2023-06-10T10:48:52;100917.47;;;33.08;17.58
75998;BME280;64685;48.762;44.822;2023-06-10T10:54:14;100923.38;;;32.49;16.74
75998;BME280;64685;48.762;44.822;2023-06-10T10:59:16;100913.16;;;32.11;16.76
75998;BME280;64685;48.762;44.822;2023-06-10T11:04:22;100916.75;;;32.15;16.60
75998;BME280;64685;48.762;44.822;2023-06-10T11:09:26;100915.94;;;32.02;18.34
75998;BME280;64685;48.762;44.822;2023-06-10T11:14:32;100919.66;;;31.90;19.11
75998;BME280;64685;48.762;44.822;2023-06-10T11:19:37;100907.44;;;32.20;17.82
75998;BME280;64685;48.762;44.822;2023-06-10T11:24:47;100899.13;;;32.22;17.89
75998;BME280;64685;48.762;44.822;2023-06-10T11:35:09;100892.16;;;31.85;19.21
75998;BME280;64685;48.762;44.822;2023-06-10T11:40:13;100901.94;;;32.00;18.95
75998;BME280;64685;48.762;44.822;2023-06-10T11:45:15;100881.44;;;32.20;18.42
75998;BME280;64685;48.762;44.822;2023-06-10T11:50:31;100877.06;;;32.28;18.60
75998;BME280;64685;48.762;44.822;2023-06-10T11:55:46;100884.25;;;32.11;18.86
75998;BME280;64685;48.762;44.822;2023-06-10T12:00:51;100878.03;;;31.75;18.74
75998;BME280;64685;48.762;44.822;2023-06-10T12:05:59;100868.81;;;31.67;18.77
75998;BME280;64685;48.762;44.822;2023-06-10T12:11:02;100853.78;;;31.60;19.89
75998;BME280;64685;48.762;44.822;2023-06-10T12:16:08;100851.34;;;31.21;20.29
75998;BME280;64685;48.762;44.822;2023-06-10T12:32:01;100840.38;;;31.41;20.85
75998;BME280;64685;48.762;44.822;2023-06-10T12:37:14;100844.06;;;31.41;20.98
75998;BME280;64685;48.762;44.822;2023-06-10T12:42:21;100839.56;;;31.53;21.28
75998;BME280;64685;48.762;44.822;2023-06-10T12:47:31;100836.44;;;31.47;21.49
75998;BME280;64685;48.762;44.822;2023-06-10T12:52:35;100842.00;;;31.29;21.07
75998;BME280;64685;48.762;44.822;2023-06-10T12:57:37;100828.72;;;31.19;21.27
75998;BME280;64685;48.762;44.822;2023-06-10T13:02:50;100822.06;;;30.94;21.06
75998;BME280;64685;48.762;44.822;2023-06-10T13:07:52;100820.19;;;30.75;21.33
75998;BME280;64685;48.762;44.822;2023-06-10T13:12:55;100820.69;;;30.57;20.99
75998;BME280;64685;48.762;44.822;2023-06-10T13:17:58;100811.09;;;30.48;21.22
75998;BME280;64685;48.762;44.822;2023-06-10T13:23:01;100802.31;;;30.51;21.37
75998;BME280;64685;48.762;44.822;2023-06-10T13:28:04;100808.31;;;30.57;21.41
75998;BME280;64685;48.762;44.822;2023-06-10T13:33:06;100797.56;;;30.73;21.38
75998;BME280;64685;48.762;44.822;2023-06-10T13:38:09;100795.50;;;30.86;21.40
75998;BME280;64685;48.762;44.822;2023-06-10T13:43:11;100792.16;;;30.88;21.72
75998;BME280;64685;48.762;44.822;2023-06-10T13:48:15;100779.38;;;31.01;21.50
75998;BME280;64685;48.762;44.822;2023-06-10T13:53:18;100773.22;;;30.99;21.52
75998;BME280;64685;48.762;44.822;2023-06-10T13:58:21;100760.66;;;31.06;21.74
75998;BME280;64685;48.762;44.822;2023-06-10T14:03:23;100762.53;;;31.12;21.05
75998;BME280;64685;48.762;44.822;2023-06-10T14:08:26;100758.09;;;31.08;21.30
75998;BME280;64685;48.762;44.822;2023-06-10T14:13:29;100756.63;;;31.16;21.27
75998;BME280;64685;48.762;44.822;2023-06-10T14:18:32;100750.31;;;31.21;21.06
75998;BME280;64685;48.762;44.822;2023-06-10T14:23:34;100730.19;;;31.05;20.76
75998;BME280;64685;48.762;44.822;2023-06-10T14:28:37;100728.66;;;31.13;21.01
75998;BME280;64685;48.762;44.822;2023-06-10T14:33:40;100729.94;;;31.12;20.14
75998;BME280;64685;48.762;44.822;2023-06-10T14:38:45;100729.03;;;31.15;20.88
75998;BME280;64685;48.762;44.822;2023-06-10T14:43:48;100722.69;;;31.07;20.52
75998;BME280;64685;48.762;44.822;2023-06-10T14:48:51;100718.06;;;31.10;20.93
75998;BME280;64685;48.762;44.822;2023-06-10T14:53:53;100722.81;;;31.04;20.68
75998;BME280;64685;48.762;44.822;2023-06-10T14:58:56;100713.00;;;31.01;21.06
75998;BME280;64685;48.762;44.822;2023-06-10T15:03:58;100716.09;;;31.07;21.40
75998;BME280;64685;48.762;44.822;2023-06-10T15:09:01;100705.03;;;31.05;20.88
75998;BME280;64685;48.762;44.822;2023-06-10T15:14:04;100700.19;;;31.02;21.06
75998;BME280;64685;48.762;44.822;2023-06-10T15:19:07;100689.22;;;30.97;21.35
75998;BME280;64685;48.762;44.822;2023-06-10T15:24:11;100700.06;;;30.93;21.92
75998;BME280;64685;48.762;44.822;2023-06-10T15:29:14;100702.47;;;30.82;21.39
75998;BME280;64685;48.762;44.822;2023-06-10T15:34:16;100698.47;;;30.80;21.56
75998;BME280;64685;48.762;44.822;2023-06-10T15:39:19;100700.28;;;30.74;22.25
75998;BME280;64685;48.762;44.822;2023-06-10T15:44:22;100693.69;;;30.61;22.66
75998;BME280;64685;48.762;44.822;2023-06-10T15:49:24;100704.13;;;30.42;23.12
75998;BME280;64685;48.762;44.822;2023-06-10T15:54:27;100701.13;;;30.33;23.90
75998;BME280;64685;48.762;44.822;2023-06-10T15:59:30;100712.41;;;30.15;24.47
75998;BME280;64685;48.762;44.822;2023-06-10T16:04:32;100712.31;;;30.03;24.62
75998;BME280;64685;48.762;44.822;2023-06-10T16:09:35;100700.50;;;29.85;25.63
75998;BME280;64685;48.762;44.822;2023-06-10T16:14:37;100703.66;;;29.74;25.87
75998;BME280;64685;48.762;44.822;2023-06-10T16:19:40;100705.56;;;29.65;25.97
75998;BME280;64685;48.762;44.822;2023-06-10T16:24:42;100698.84;;;29.55;25.44
75998;BME280;64685;48.762;44.822;2023-06-10T16:29:45;100711.97;;;29.40;26.19
75998;BME280;64685;48.762;44.822;2023-06-10T16:34:48;100723.47;;;29.24;26.82
75998;BME280;64685;48.762;44.822;2023-06-10T16:39:51;100729.16;;;29.12;26.44
75998;BME280;64685;48.762;44.822;2023-06-10T16:44:54;100734.34;;;29.01;27.22
75998;BME280;64685;48.762;44.822;2023-06-10T16:49:56;100728.56;;;28.85;26.79
75998;BME280;64685;48.762;44.822;2023-06-10T16:54:59;100740.75;;;28.73;27.17
75998;BME280;64685;48.762;44.822;2023-06-10T17:00:02;100744.66;;;28.63;27.12
75998;BME280;64685;48.762;44.822;2023-06-10T17:05:07;100747.50;;;28.47;27.54
75998;BME280;64685;48.762;44.822;2023-06-10T17:10:10;100751.09;;;28.31;28.76
75998;BME280;64685;48.762;44.822;2023-06-10T17:15:13;100752.78;;;28.09;29.12
75998;BME280;64685;48.762;44.822;2023-06-10T17:20:16;100765.00;;;27.94;30.16
75998;BME280;64685;48.762;44.822;2023-06-10T17:25:18;100766.00;;;27.84;30.66
75998;BME280;64685;48.762;44.822;2023-06-10T17:30:21;100768.59;;;27.75;31.57
75998;BME280;64685;48.762;44.822;2023-06-10T17:35:23;100779.91;;;27.62;32.00
75998;BME280;64685;48.762;44.822;2023-06-10T17:40:26;100776.91;;;27.46;32.50
75998;BME280;64685;48.762;44.822;2023-06-10T17:45:29;100782.13;;;27.28;33.22
75998;BME280;64685;48.762;44.822;2023-06-10T17:50:31;100779.03;;;27.16;33.59
75998;BME280;64685;48.762;44.822;2023-06-10T17:55:34;100773.50;;;27.02;33.92
75998;BME280;64685;48.762;44.822;2023-06-10T18:00:37;100774.88;;;26.94;34.78
75998;BME280;64685;48.762;44.822;2023-06-10T18:05:40;100781.13;;;26.85;35.67
75998;BME280;64685;48.762;44.822;2023-06-10T18:10:42;100773.50;;;26.75;36.36
75998;BME280;64685;48.762;44.822;2023-06-10T18:15:45;100767.03;;;26.68;36.97
75998;BME280;64685;48.762;44.822;2023-06-10T18:20:48;100774.59;;;26.55;37.58
75998;BME280;64685;48.762;44.822;2023-06-10T18:25:50;100771.88;;;26.41;38.40
75998;BME280;64685;48.762;44.822;2023-06-10T18:30:53;100768.00;;;26.24;38.86
75998;BME280;64685;48.762;44.822;2023-06-10T18:35:58;100769.41;;;26.13;39.45
75998;BME280;64685;48.762;44.822;2023-06-10T18:41:00;100758.09;;;25.99;39.75
75998;BME280;64685;48.762;44.822;2023-06-10T18:46:03;100767.56;;;25.89;40.30
75998;BME280;64685;48.762;44.822;2023-06-10T18:51:05;100779.09;;;25.82;40.18
75998;BME280;64685;48.762;44.822;2023-06-10T18:56:08;100782.50;;;25.70;40.42
75998;BME280;64685;48.762;44.822;2023-06-10T19:01:11;100776.88;;;25.59;41.12
75998;BME280;64685;48.762;44.822;2023-06-10T19:06:14;100784.72;;;25.52;40.97
75998;BME280;64685;48.762;44.822;2023-06-10T19:11:16;100800.69;;;25.49;41.02
75998;BME280;64685;48.762;44.822;2023-06-10T19:16:19;100806.41;;;25.49;41.17
75998;BME280;64685;48.762;44.822;2023-06-10T19:21:21;100813.72;;;25.54;41.57
75998;BME280;64685;48.762;44.822;2023-06-10T19:26:24;100827.47;;;25.69;41.72
75998;BME280;64685;48.762;44.822;2023-06-10T19:31:27;100825.72;;;25.79;42.10
75998;BME280;64685;48.762;44.822;2023-06-10T19:36:30;100822.88;;;25.79;42.47
75998;BME280;64685;48.762;44.822;2023-06-10T19:41:32;100838.88;;;25.73;43.11
75998;BME280;64685;48.762;44.822;2023-06-10T19:46:35;100828.69;;;25.68;43.91
75998;BME280;64685;48.762;44.822;2023-06-10T19:51:37;100849.22;;;25.60;43.83
75998;BME280;64685;48.762;44.822;2023-06-10T19:56:40;100842.38;;;25.47;44.77
75998;BME280;64685;48.762;44.822;2023-06-10T20:01:43;100874.38;;;25.31;44.85
75998;BME280;64685;48.762;44.822;2023-06-10T20:06:45;100856.06;;;25.11;45.00
75998;BME280;64685;48.762;44.822;2023-06-10T20:11:48;100874.56;;;24.93;46.04
75998;BME280;64685;48.762;44.822;2023-06-10T20:16:50;100873.47;;;24.59;47.07
75998;BME280;64685;48.762;44.822;2023-06-10T20:21:53;100836.91;;;24.12;48.94
75998;BME280;64685;48.762;44.822;2023-06-10T20:26:56;100831.63;;;23.58;51.67
75998;BME280;64685;48.762;44.822;2023-06-10T20:31:59;100855.97;;;22.99;54.18
75998;BME280;64685;48.762;44.822;2023-06-10T20:37:03;100870.56;;;22.73;54.92
75998;BME280;64685;48.762;44.822;2023-06-10T20:42:06;100865.81;;;23.23;51.36
75998;BME280;64685;48.762;44.822;2023-06-10T20:47:09;100856.91;;;23.49;49.21
75998;BME280;64685;48.762;44.822;2023-06-10T20:52:11;100855.25;;;23.69;48.69
75998;BME280;64685;48.762;44.822;2023-06-10T20:57:14;100848.72;;;23.82;48.54
75998;BME280;64685;48.762;44.822;2023-06-10T21:02:17;100849.94;;;23.99;47.42
75998;BME280;64685;48.762;44.822;2023-06-10T21:07:19;100847.88;;;24.20;46.45
75998;BME280;64685;48.762;44.822;2023-06-10T21:12:23;100842.13;;;24.34;45.48
75998;BME280;64685;48.762;44.822;2023-06-10T21:17:26;100845.38;;;24.40;45.40
75998;BME280;64685;48.762;44.822;2023-06-10T21:22:29;100841.69;;;24.43;45.19
75998;BME280;64685;48.762;44.822;2023-06-10T21:27:32;100831.53;;;24.35;46.05
75998;BME280;64685;48.762;44.822;2023-06-10T21:32:34;100828.31;;;24.19;47.14
75998;BME280;64685;48.762;44.822;2023-06-10T21:37:37;100833.25;;;23.83;48.99
75998;BME280;64685;48.762;44.822;2023-06-10T21:42:40;100821.03;;;23.62;49.36
75998;BME280;64685;48.762;44.822;2023-06-10T21:47:43;100813.72;;;23.36;50.45
75998;BME280;64685;48.762;44.822;2023-06-10T21:52:45;100818.56;;;23.15;52.27
75998;BME280;64685;48.762;44.822;2023-06-10T21:57:48;100825.84;;;23.02;53.30
75998;BME280;64685;48.762;44.822;2023-06-10T22:02:50;100832.72;;;22.76;55.24
75998;BME280;64685;48.762;44.822;2023-06-10T22:15:07;100848.03;;;21.32;61.02
75998;BME280;64685;48.762;44.822;2023-06-10T22:20:11;100862.75;;;21.05;62.44
75998;BME280;64685;48.762;44.822;2023-06-10T22:25:14;100864.00;;;21.07;62.29
75998;BME280;64685;48.762;44.822;2023-06-10T22:30:17;100835.28;;;21.16;62.16
75998;BME280;64685;48.762;44.822;2023-06-10T22:35:19;100814.94;;;21.10;63.01
75998;BME280;64685;48.762;44.822;2023-06-10T22:40:22;100793.50;;;21.16;62.87
75998;BME280;64685;48.762;44.822;2023-06-10T22:45:25;100785.94;;;21.34;62.16
75998;BME280;64685;48.762;44.822;2023-06-10T22:50:28;100789.34;;;21.54;61.47
75998;BME280;64685;48.762;44.822;2023-06-10T22:55:30;100796.81;;;21.76;60.38
75998;BME280;64685;48.762;44.822;2023-06-10T23:00:37;100786.75;;;21.89;60.21
75998;BME280;64685;48.762;44.822;2023-06-10T23:05:40;100782.31;;;21.98;60.35
75998;BME280;64685;48.762;44.822;2023-06-10T23:10:43;100768.13;;;22.02;60.40
75998;BME280;64685;48.762;44.822;2023-06-10T23:15:47;100749.44;;;22.04;59.93
75998;BME280;64685;48.762;44.822;2023-06-10T23:20:49;100755.59;;;22.20;58.97
75998;BME280;64685;48.762;44.822;2023-06-10T23:25:53;100752.78;;;22.27;58.69
75998;BME280;64685;48.762;44.822;2023-06-10T23:30:56;100741.00;;;22.29;57.92
75998;BME280;64685;48.762;44.822;2023-06-10T23:35:58;100728.75;;;22.11;57.55
75998;BME280;64685;48.762;44.822;2023-06-10T23:41:01;100714.84;;;21.92;58.17
75998;BME280;64685;48.762;44.822;2023-06-10T23:46:04;100725.34;;;21.77;58.56
75998;BME280;64685;48.762;44.822;2023-06-10T23:51:07;100723.69;;;21.73;59.04
75998;BME280;64685;48.762;44.822;2023-06-10T23:56:10;100724.00;;;21.61;58.89
